createdAt,value
2023-05-08T00:01:42.951Z,16.24
2023-05-08T00:04:13.657Z,16.23
2023-05-08T00:06:42.393Z,16.23
2023-05-08T00:09:11.243Z,16.24
2023-05-08T00:11:39.706Z,16.24
2023-05-08T00:14:08.208Z,16.27
2023-05-08T00:16:37.483Z,16.27
2023-05-08T00:19:06.010Z,16.21
2023-05-08T00:21:35.821Z,16.08
2023-05-08T00:24:04.706Z,15.96
2023-05-08T00:26:33.259Z,15.89
2023-05-08T00:29:01.630Z,15.81
2023-05-08T00:31:30.225Z,15.75
2023-05-08T00:33:59.098Z,15.68
2023-05-08T00:36:27.739Z,15.54
2023-05-08T00:38:57.577Z,15.40
2023-05-08T00:41:26.982Z,15.29
2023-05-08T00:43:55.459Z,15.09
2023-05-08T00:46:24.351Z,15.00
2023-05-08T00:48:53.591Z,14.96
2023-05-08T00:51:22.965Z,14.95
2023-05-08T00:53:51.763Z,14.90
2023-05-08T00:56:22.105Z,14.82
2023-05-08T00:58:51.385Z,14.81
2023-05-08T01:01:20.247Z,14.80
2023-05-08T01:03:49.146Z,14.73
2023-05-08T01:06:17.745Z,14.72
2023-05-08T01:08:46.927Z,14.74
2023-05-08T01:11:24.833Z,14.66
2023-05-08T01:14:06.049Z,14.33
2023-05-08T01:16:43.126Z,14.50
2023-05-08T01:19:40.336Z,14.52
2023-05-08T01:22:21.608Z,14.53
2023-05-08T01:25:18.192Z,14.42
2023-05-08T01:28:30.227Z,14.35
2023-05-08T01:31:11.170Z,14.31
2023-05-08T01:33:48.748Z,14.39
2023-05-08T01:36:27.358Z,14.33
2023-05-08T01:39:06.767Z,14.23
2023-05-08T01:41:38.233Z,14.19
2023-05-08T01:44:15.198Z,14.21
2023-05-08T01:46:49.422Z,14.15
2023-05-08T01:49:25.489Z,14.16
2023-05-08T01:52:00.591Z,14.13
2023-05-08T01:54:35.472Z,14.13
2023-05-08T01:57:05.848Z,14.09
2023-05-08T01:59:37.220Z,14.08
2023-05-08T02:02:07.132Z,14.06
2023-05-08T02:04:37.518Z,14.08
2023-05-08T02:07:09.516Z,14.10
2023-05-08T02:09:40.390Z,14.05
2023-05-08T02:12:10.616Z,13.96
2023-05-08T02:14:39.849Z,13.94
2023-05-08T02:17:11.100Z,13.99
2023-05-08T02:19:42.706Z,14.02
2023-05-08T02:22:12.215Z,14.01
2023-05-08T02:24:42.819Z,14.01
2023-05-08T02:27:12.867Z,14.00
2023-05-08T02:29:41.711Z,14.02
2023-05-08T02:32:12.342Z,14.00
2023-05-08T02:34:51.236Z,13.98
2023-05-08T02:37:28.868Z,13.96
2023-05-08T02:39:59.848Z,14.04
2023-05-08T02:42:28.523Z,14.11
2023-05-08T02:44:56.926Z,14.17
2023-05-08T02:47:28.842Z,14.19
2023-05-08T02:50:02.068Z,14.25
2023-05-08T02:52:34.389Z,14.32
2023-05-08T02:55:08.321Z,14.40
2023-05-08T02:57:41.713Z,14.48
2023-05-08T03:00:16.762Z,14.54
2023-05-08T03:02:52.368Z,14.61
2023-05-08T03:05:31.167Z,14.66
2023-05-08T03:08:06.597Z,14.68
2023-05-08T03:10:36.316Z,14.54
2023-05-08T03:13:09.409Z,14.74
2023-05-08T03:15:43.514Z,14.80
2023-05-08T03:18:15.755Z,14.87
2023-05-08T03:20:49.566Z,14.96
2023-05-08T03:23:21.649Z,15.01
2023-05-08T03:25:50.304Z,15.05
2023-05-08T03:28:20.040Z,15.12
2023-05-08T03:30:49.634Z,15.15
2023-05-08T03:33:19.625Z,15.06
2023-05-08T03:35:51.248Z,15.16
2023-05-08T03:38:20.741Z,15.17
2023-05-08T03:40:49.470Z,15.23
2023-05-08T03:43:19.258Z,15.26
2023-05-08T03:45:48.937Z,15.27
2023-05-08T03:48:19.298Z,15.28
2023-05-08T03:50:49.543Z,15.28
2023-05-08T03:53:18.185Z,15.30
2023-05-08T03:55:46.979Z,15.31
2023-05-08T03:58:23.017Z,15.31
2023-05-08T04:01:03.022Z,15.32
2023-05-08T04:03:54.962Z,15.27
2023-05-08T04:06:42.024Z,15.20
2023-05-08T04:09:24.923Z,15.11
2023-05-08T04:12:02.180Z,15.08
2023-05-08T04:14:37.157Z,15.09
2023-05-08T04:17:11.110Z,15.10
2023-05-08T04:19:44.640Z,15.08
2023-05-08T04:22:16.597Z,15.09
2023-05-08T04:24:49.346Z,15.10
2023-05-08T04:27:18.711Z,15.08
2023-05-08T04:29:47.429Z,15.08
2023-05-08T04:32:17.957Z,15.06
2023-05-08T04:34:46.560Z,15.04
2023-05-08T04:37:27.001Z,15.03
2023-05-08T04:39:56.668Z,15.11
2023-05-08T04:42:26.471Z,15.16
2023-05-08T04:44:56.937Z,15.22
2023-05-08T04:47:26.416Z,15.35
2023-05-08T04:49:54.858Z,15.42
2023-05-08T04:52:24.745Z,15.51
2023-05-08T04:54:53.079Z,15.57
2023-05-08T04:57:21.548Z,15.63
2023-05-08T04:59:50.292Z,15.73
2023-05-08T05:02:19.060Z,15.78
2023-05-08T05:04:49.108Z,15.81
2023-05-08T05:07:17.677Z,15.86
2023-05-08T05:09:47.620Z,15.90
2023-05-08T05:12:15.966Z,15.94
2023-05-08T05:14:44.470Z,15.98
2023-05-08T05:17:13.117Z,16.02
2023-05-08T05:19:41.619Z,16.04
2023-05-08T05:22:10.222Z,16.06
2023-05-08T05:24:39.929Z,16.15
2023-05-08T05:27:09.934Z,16.20
2023-05-08T05:29:39.369Z,16.25
2023-05-08T05:32:10.291Z,16.27
2023-05-08T05:34:39.413Z,16.44
2023-05-08T05:37:08.323Z,16.57
2023-05-08T05:39:37.936Z,16.77
2023-05-08T05:42:07.098Z,16.96
2023-05-08T05:44:37.044Z,17.12
2023-05-08T05:47:06.438Z,17.28
2023-05-08T05:49:34.990Z,17.43
2023-05-08T05:52:03.571Z,17.56
2023-05-08T05:54:32.004Z,17.69
2023-05-08T05:57:00.415Z,17.81
2023-05-08T05:59:28.848Z,17.91
2023-05-08T06:01:59.005Z,18.05
2023-05-08T06:04:27.970Z,18.20
2023-05-08T06:06:56.813Z,18.36
2023-05-08T06:09:26.299Z,18.52
2023-05-08T06:11:54.710Z,18.83
2023-05-08T06:14:23.231Z,19.38
2023-05-08T06:16:51.697Z,19.95
2023-05-08T06:19:24.292Z,20.56
2023-05-08T06:21:53.103Z,21.11
2023-05-08T06:24:21.800Z,21.75
2023-05-08T06:26:50.268Z,22.32
2023-05-08T06:29:18.579Z,22.74
2023-05-08T06:31:47.283Z,23.12
2023-05-08T06:34:15.803Z,23.47
2023-05-08T06:36:45.628Z,23.83
2023-05-08T06:39:14.061Z,24.16
2023-05-08T06:41:42.492Z,24.44
2023-05-08T06:44:16.785Z,24.86
2023-05-08T06:46:45.360Z,25.15
2023-05-08T06:49:13.777Z,25.61
2023-05-08T06:51:42.244Z,25.84
2023-05-08T06:54:12.065Z,26.35
2023-05-08T06:56:40.513Z,26.49
2023-05-08T06:59:09.396Z,26.72
2023-05-08T07:01:38.834Z,26.88
2023-05-08T07:04:07.503Z,26.92
2023-05-08T07:06:35.987Z,27.02
2023-05-08T07:09:04.452Z,27.15
2023-05-08T07:11:34.343Z,27.34
2023-05-08T07:14:02.811Z,27.44
2023-05-08T07:16:31.239Z,27.42
2023-05-08T07:18:59.811Z,27.60
2023-05-08T07:21:29.582Z,27.73
2023-05-08T07:23:58.171Z,27.95
2023-05-08T07:26:26.622Z,28.04
2023-05-08T07:28:56.481Z,28.00
2023-05-08T07:31:25.036Z,28.01
2023-05-08T07:33:53.609Z,28.14
2023-05-08T07:36:22.965Z,28.27
2023-05-08T07:38:54.396Z,28.19
2023-05-08T07:41:23.030Z,28.11
2023-05-08T07:43:51.501Z,28.11
2023-05-08T07:46:21.948Z,27.99
2023-05-08T07:48:50.295Z,27.92
2023-05-08T07:51:18.689Z,27.86
2023-05-08T07:53:48.999Z,27.84
2023-05-08T07:56:17.867Z,27.81
2023-05-08T07:58:47.980Z,27.58
2023-05-08T08:01:18.302Z,27.28
2023-05-08T08:03:49.434Z,27.07
2023-05-08T08:06:18.732Z,26.93
2023-05-08T08:08:47.151Z,26.82
2023-05-08T08:11:15.687Z,26.75
2023-05-08T08:13:44.091Z,26.61
2023-05-08T08:16:12.517Z,26.47
2023-05-08T08:18:41.948Z,26.52
2023-05-08T08:21:12.028Z,26.57
2023-05-08T08:23:40.599Z,26.47
2023-05-08T08:26:10.062Z,26.29
2023-05-08T08:28:38.492Z,26.18
2023-05-08T08:31:07.095Z,26.02
2023-05-08T08:33:35.857Z,25.94
2023-05-08T08:36:04.308Z,25.97
2023-05-08T08:38:34.146Z,26.03
2023-05-08T08:41:03.380Z,25.99
2023-05-08T08:43:31.975Z,25.80
2023-05-08T08:46:01.017Z,25.64
2023-05-08T08:48:31.164Z,25.64
2023-05-08T08:51:03.994Z,25.41
2023-05-08T08:53:38.643Z,25.01
2023-05-08T08:56:09.895Z,25.22
2023-05-08T08:58:43.564Z,25.25
2023-05-08T09:01:17.633Z,25.37
2023-05-08T09:03:49.167Z,25.55
2023-05-08T09:06:19.001Z,25.74
2023-05-08T09:08:49.236Z,25.90
2023-05-08T09:11:17.612Z,26.10
2023-05-08T09:13:46.083Z,26.14
2023-05-08T09:16:16.662Z,26.15
2023-05-08T09:18:45.209Z,26.27
2023-05-08T09:21:14.109Z,26.37
2023-05-08T09:23:59.510Z,26.39
2023-05-08T09:26:32.722Z,26.53
2023-05-08T09:29:13.456Z,26.67
2023-05-08T09:31:43.883Z,26.65
2023-05-08T09:34:24.967Z,26.64
2023-05-08T09:36:53.450Z,26.90
2023-05-08T09:39:26.865Z,26.79
2023-05-08T09:41:59.963Z,26.74
2023-05-08T09:44:28.781Z,26.83
2023-05-08T09:47:12.433Z,26.94
2023-05-08T09:49:41.080Z,26.88
2023-05-08T09:52:09.796Z,26.55
2023-05-08T09:54:39.786Z,26.13
2023-05-08T09:57:14.192Z,25.79
2023-05-08T09:59:42.843Z,25.51
2023-05-08T10:02:16.437Z,25.43
2023-05-08T10:04:47.352Z,25.56
2023-05-08T10:07:15.814Z,25.74
2023-05-08T10:10:00.141Z,26.01
2023-05-08T10:12:29.158Z,26.43
2023-05-08T10:14:59.308Z,26.67
2023-05-08T10:17:32.855Z,26.76
2023-05-08T10:20:04.885Z,26.52
2023-05-08T10:22:37.602Z,26.15
2023-05-08T10:25:16.710Z,26.33
2023-05-08T10:27:51.094Z,26.12
2023-05-08T10:30:25.240Z,25.87
2023-05-08T10:32:55.945Z,25.69
2023-05-08T10:35:26.370Z,25.79
2023-05-08T10:37:57.567Z,26.08
2023-05-08T10:40:27.486Z,26.29
2023-05-08T10:42:57.646Z,26.35
2023-05-08T10:45:28.268Z,26.25
2023-05-08T10:48:06.130Z,26.07
2023-05-08T10:50:52.657Z,26.17
2023-05-08T10:53:30.425Z,26.61
2023-05-08T10:56:00.997Z,26.69
2023-05-08T10:58:34.014Z,26.52
2023-05-08T11:01:16.480Z,26.30
2023-05-08T11:03:47.206Z,26.32
2023-05-08T11:06:15.994Z,26.33
2023-05-08T11:08:50.714Z,26.35
2023-05-08T11:11:32.162Z,26.23
2023-05-08T11:14:12.626Z,26.36
2023-05-08T11:17:10.046Z,26.67
2023-05-08T11:19:40.062Z,26.87
2023-05-08T11:22:16.470Z,27.03
2023-05-08T11:24:54.027Z,27.16
2023-05-08T11:27:39.858Z,27.28
2023-05-08T11:30:36.183Z,27.27
2023-05-08T11:33:19.240Z,27.28
2023-05-08T11:35:53.401Z,27.30
2023-05-08T11:38:34.235Z,27.38
2023-05-08T11:41:09.056Z,27.44
2023-05-08T11:44:09.657Z,27.17
2023-05-08T11:46:51.864Z,26.83
2023-05-08T11:49:26.947Z,26.64
2023-05-08T11:52:00.288Z,27.09
2023-05-08T11:54:32.047Z,27.27
2023-05-08T11:57:02.010Z,27.36
2023-05-08T11:59:36.863Z,27.41
2023-05-08T12:02:09.108Z,27.24
2023-05-08T12:04:45.886Z,27.29
2023-05-08T12:07:16.273Z,27.45
2023-05-08T12:09:44.690Z,27.55
2023-05-08T12:12:13.180Z,27.64
2023-05-08T12:14:43.034Z,27.76
2023-05-08T12:17:12.683Z,27.66
2023-05-08T12:19:41.302Z,27.44
2023-05-08T12:22:10.848Z,27.43
2023-05-08T12:24:40.735Z,27.48
2023-05-08T12:27:09.360Z,27.52
2023-05-08T12:29:39.869Z,27.60
2023-05-08T12:32:09.892Z,27.70
2023-05-08T12:34:38.392Z,27.69
2023-05-08T12:37:06.980Z,27.71
2023-05-08T12:39:38.703Z,27.72
2023-05-08T12:42:07.199Z,27.81
2023-05-08T12:44:35.621Z,27.77
2023-05-08T12:47:06.826Z,27.78
2023-05-08T12:49:36.852Z,27.83
2023-05-08T12:52:07.537Z,27.84
2023-05-08T12:54:37.970Z,27.81
2023-05-08T12:57:12.911Z,27.80
2023-05-08T12:59:42.025Z,27.87
2023-05-08T13:02:17.699Z,27.72
2023-05-08T13:04:50.007Z,27.95
2023-05-08T13:07:18.558Z,27.93
2023-05-08T13:10:00.272Z,27.91
2023-05-08T13:12:28.808Z,27.69
2023-05-08T13:14:58.124Z,27.39
2023-05-08T13:17:26.631Z,27.39
2023-05-08T13:19:56.448Z,27.30
2023-05-08T13:22:26.871Z,27.21
2023-05-08T13:24:55.476Z,27.07
2023-05-08T13:27:23.938Z,27.05
2023-05-08T13:29:52.476Z,27.12
2023-05-08T13:32:21.228Z,27.28
2023-05-08T13:34:51.681Z,27.46
2023-05-08T13:37:23.976Z,27.57
2023-05-08T13:39:54.406Z,27.56
2023-05-08T13:42:22.804Z,27.68
2023-05-08T13:44:51.300Z,27.74
2023-05-08T13:47:19.689Z,27.45
2023-05-08T13:49:50.447Z,27.71
2023-05-08T13:52:19.083Z,27.70
2023-05-08T13:54:48.834Z,27.67
2023-05-08T13:57:17.311Z,27.71
2023-05-08T13:59:45.750Z,27.71
2023-05-08T14:02:14.581Z,27.73
2023-05-08T14:04:43.623Z,27.78
2023-05-08T14:07:12.161Z,27.88
2023-05-08T14:09:40.657Z,27.81
2023-05-08T14:12:10.496Z,27.77
2023-05-08T14:14:39.107Z,27.76
2023-05-08T14:17:08.091Z,27.72
2023-05-08T14:19:36.480Z,27.70
2023-05-08T14:22:05.094Z,27.70
2023-05-08T14:24:33.464Z,27.77
2023-05-08T14:27:05.978Z,27.78
2023-05-08T14:29:35.965Z,27.82
2023-05-08T14:32:06.299Z,27.78
2023-05-08T14:34:34.776Z,27.77
2023-05-08T14:37:03.326Z,27.78
2023-05-08T14:39:32.038Z,27.88
2023-05-08T14:42:21.283Z,27.94
2023-05-08T14:44:52.826Z,27.98
2023-05-08T14:47:21.280Z,27.96
2023-05-08T14:49:49.676Z,27.77
2023-05-08T14:52:18.148Z,27.71
2023-05-08T14:54:48.135Z,27.34
2023-05-08T14:57:16.551Z,27.45
2023-05-08T14:59:54.194Z,27.29
2023-05-08T15:02:25.379Z,27.13
2023-05-08T15:04:54.094Z,26.98
2023-05-08T15:07:22.410Z,26.98
2023-05-08T15:09:50.888Z,27.06
2023-05-08T15:12:19.260Z,27.14
2023-05-08T15:14:47.674Z,27.12
2023-05-08T15:17:16.048Z,27.15
2023-05-08T15:19:46.960Z,27.19
2023-05-08T15:22:15.443Z,27.27
2023-05-08T15:24:43.823Z,27.40
2023-05-08T15:27:12.413Z,27.51
2023-05-08T15:29:40.979Z,27.57
2023-05-08T15:32:09.818Z,27.58
2023-05-08T15:34:40.525Z,27.54
2023-05-08T15:37:10.516Z,27.50
2023-05-08T15:39:39.051Z,27.36
2023-05-08T15:42:07.760Z,27.26
2023-05-08T15:47:08.271Z,27.21
2023-05-08T15:49:37.696Z,27.25
2023-05-08T15:52:07.107Z,27.26
2023-05-08T15:54:36.907Z,27.18
2023-05-08T15:57:06.405Z,27.08
2023-05-08T15:59:38.424Z,26.96
2023-05-08T16:02:07.297Z,26.84
2023-05-08T16:04:36.043Z,26.81
2023-05-08T16:07:04.632Z,26.70
2023-05-08T16:09:33.401Z,26.67
2023-05-08T16:12:03.287Z,26.60
2023-05-08T16:14:31.731Z,26.52
2023-05-08T16:17:00.196Z,26.46
2023-05-08T16:19:30.792Z,26.42
2023-05-08T16:22:00.306Z,26.37
2023-05-08T16:24:32.072Z,26.27
2023-05-08T16:27:00.616Z,26.11
2023-05-08T16:29:30.393Z,26.10
2023-05-08T16:31:59.009Z,26.15
2023-05-08T16:34:27.478Z,26.14
2023-05-08T16:36:58.577Z,26.16
2023-05-08T16:39:26.957Z,26.14
2023-05-08T16:41:55.389Z,26.11
2023-05-08T16:44:24.859Z,26.06
2023-05-08T16:46:55.669Z,26.00
2023-05-08T16:49:24.135Z,25.93
2023-05-08T16:51:52.506Z,25.89
2023-05-08T16:54:20.842Z,25.84
2023-05-08T16:56:50.252Z,25.82
2023-05-08T16:59:19.699Z,25.79
2023-05-08T17:01:48.139Z,25.78
2023-05-08T17:04:18.321Z,25.74
2023-05-08T17:06:47.045Z,25.70
2023-05-08T17:09:16.635Z,25.63
2023-05-08T17:11:45.050Z,25.53
2023-05-08T17:14:13.435Z,25.47
2023-05-08T17:16:43.923Z,25.40
2023-05-08T17:19:12.364Z,25.34
2023-05-08T17:21:42.186Z,25.29
2023-05-08T17:24:10.831Z,25.21
2023-05-08T17:26:41.207Z,25.19
2023-05-08T17:29:09.592Z,25.20
2023-05-08T17:31:38.145Z,25.18
2023-05-08T17:34:08.063Z,25.16
2023-05-08T17:36:36.545Z,25.10
2023-05-08T17:39:06.369Z,25.11
2023-05-08T17:41:34.770Z,25.10
2023-05-08T17:44:04.375Z,25.05
2023-05-08T17:46:32.927Z,25.08
2023-05-08T17:49:01.376Z,25.10
2023-05-08T17:51:29.864Z,25.08
2023-05-08T17:53:58.289Z,25.05
2023-05-08T17:58:57.724Z,24.90
2023-05-08T18:01:26.664Z,24.85
2023-05-08T18:03:56.485Z,24.77
2023-05-08T18:06:24.908Z,24.72
2023-05-08T18:08:53.340Z,24.66
2023-05-08T18:11:23.712Z,23.79
2023-05-08T18:13:55.382Z,24.57
2023-05-08T18:16:24.172Z,24.47
2023-05-08T18:18:52.487Z,24.43
2023-05-08T18:21:20.912Z,24.38
2023-05-08T18:23:49.241Z,24.30
2023-05-08T18:26:18.061Z,24.19
2023-05-08T18:28:46.388Z,24.12
2023-05-08T18:31:16.853Z,24.05
2023-05-08T18:33:46.005Z,23.94
2023-05-08T18:36:15.014Z,23.88
2023-05-08T18:38:44.025Z,23.82
2023-05-08T18:41:13.428Z,23.76
2023-05-08T18:43:42.576Z,23.71
2023-05-08T18:46:13.354Z,23.66
2023-05-08T18:48:43.440Z,23.59
2023-05-08T18:51:12.232Z,23.54
2023-05-08T18:53:42.736Z,23.45
2023-05-08T18:56:12.558Z,23.39
2023-05-08T18:58:41.253Z,23.36
2023-05-08T19:01:09.799Z,23.27
2023-05-08T19:03:38.288Z,23.23
2023-05-08T19:06:08.345Z,23.18
2023-05-08T19:08:36.732Z,23.10
2023-05-08T19:11:05.168Z,23.04
2023-05-08T19:13:33.552Z,22.92
2023-05-08T19:16:02.075Z,22.94
2023-05-08T19:18:31.805Z,22.92
2023-05-08T19:21:00.263Z,22.90
2023-05-08T19:23:30.091Z,22.83
2023-05-08T19:25:58.565Z,22.78
2023-05-08T19:28:27.029Z,22.62
2023-05-08T19:30:55.448Z,22.50
2023-05-08T19:33:23.929Z,22.43
2023-05-08T19:35:52.429Z,22.30
2023-05-08T19:38:20.893Z,22.21
2023-05-08T19:40:56.666Z,22.12
2023-05-08T19:43:26.069Z,22.03
2023-05-08T19:45:54.502Z,21.98
2023-05-08T19:48:23.021Z,21.94
2023-05-08T19:50:54.586Z,21.86
2023-05-08T19:53:23.837Z,21.82
2023-05-08T19:55:53.724Z,21.78
2023-05-08T19:58:22.218Z,21.75
2023-05-08T20:00:51.191Z,21.71
2023-05-08T20:03:22.464Z,21.68
2023-05-08T20:05:52.442Z,21.63
2023-05-08T20:08:21.074Z,21.55
2023-05-08T20:10:50.086Z,21.50
2023-05-08T20:13:20.135Z,21.37
2023-05-08T20:15:49.667Z,21.25
2023-05-08T20:18:18.056Z,21.17
2023-05-08T20:20:46.641Z,21.09
2023-05-08T20:23:15.503Z,21.04
2023-05-08T20:25:46.456Z,20.96
2023-05-08T20:28:15.118Z,20.94
2023-05-08T20:30:45.346Z,20.93
2023-05-08T20:33:13.915Z,20.93
2023-05-08T20:35:42.364Z,20.90
2023-05-08T20:38:11.062Z,20.87
2023-05-08T20:40:39.481Z,20.86
2023-05-08T20:43:07.961Z,20.75
2023-05-08T20:45:36.444Z,20.67
2023-05-08T20:48:06.918Z,20.63
2023-05-08T20:50:35.438Z,20.59
2023-05-08T20:53:03.780Z,20.57
2023-05-08T20:55:32.227Z,20.57
2023-05-08T20:58:02.077Z,20.52
2023-05-08T21:00:31.905Z,20.50
2023-05-08T21:03:00.541Z,20.46
2023-05-08T21:05:30.546Z,20.42
2023-05-08T21:08:02.407Z,20.39
2023-05-08T21:10:31.570Z,20.39
2023-05-08T21:13:00.046Z,20.42
2023-05-08T21:15:28.524Z,20.44
2023-05-08T21:17:57.816Z,20.42
2023-05-08T21:20:26.338Z,20.39
2023-05-08T21:22:57.121Z,20.35
2023-05-08T21:25:25.680Z,20.27
2023-05-08T21:27:55.356Z,20.21
2023-05-08T21:30:25.295Z,20.12
2023-05-08T21:32:53.858Z,19.99
2023-05-08T21:35:22.594Z,19.94
2023-05-08T21:37:54.507Z,19.88
2023-05-08T21:40:24.791Z,19.86
2023-05-08T21:42:53.292Z,19.90
2023-05-08T21:45:21.826Z,19.88
2023-05-08T21:47:50.276Z,19.77
2023-05-08T21:50:18.982Z,19.63
2023-05-08T21:52:47.370Z,19.53
2023-05-08T21:55:15.949Z,19.44
2023-05-08T21:57:45.908Z,19.42
2023-05-08T22:00:15.575Z,19.33
2023-05-08T22:02:49.901Z,19.26
2023-05-08T22:05:18.432Z,19.25
2023-05-08T22:07:46.775Z,19.24
2023-05-08T22:10:15.208Z,19.04
2023-05-08T22:12:43.571Z,18.92
2023-05-08T22:15:28.271Z,18.68
2023-05-08T22:17:58.610Z,18.73
2023-05-08T22:20:27.177Z,18.61
2023-05-08T22:22:55.779Z,18.53
2023-05-08T22:25:25.821Z,18.55
2023-05-08T22:27:54.248Z,18.50
2023-05-08T22:30:24.214Z,18.40
2023-05-08T22:32:56.539Z,18.28
2023-05-08T22:35:26.999Z,18.24
2023-05-08T22:37:57.361Z,17.83
2023-05-08T22:40:26.225Z,18.06
2023-05-08T22:42:55.982Z,18.00
2023-05-08T22:45:27.056Z,17.93
2023-05-08T22:47:55.831Z,17.86
2023-05-08T22:50:24.324Z,17.74
2023-05-08T22:52:52.822Z,17.75
2023-05-08T22:55:21.196Z,17.66
2023-05-08T22:57:49.592Z,17.57
2023-05-08T23:00:18.228Z,17.30
2023-05-08T23:02:48.227Z,17.52
2023-05-08T23:05:16.961Z,17.50
2023-05-08T23:07:45.586Z,17.51
2023-05-08T23:10:14.380Z,17.52
2023-05-08T23:12:42.857Z,17.51
2023-05-08T23:15:12.709Z,17.26
2023-05-08T23:17:42.420Z,17.27
2023-05-08T23:20:13.094Z,17.19
2023-05-08T23:22:41.617Z,17.09
2023-05-08T23:25:11.949Z,17.05
2023-05-08T23:27:40.486Z,16.99
2023-05-08T23:30:13.322Z,16.98
2023-05-08T23:32:42.217Z,16.88
2023-05-08T23:35:12.480Z,16.89
2023-05-08T23:37:41.086Z,16.80
2023-05-08T23:40:10.969Z,16.71
2023-05-08T23:42:39.930Z,16.74
2023-05-08T23:45:09.580Z,16.78
2023-05-08T23:47:39.018Z,16.83
2023-05-08T23:50:08.575Z,16.87
2023-05-08T23:52:38.454Z,17.00
2023-05-08T23:55:07.811Z,17.01
2023-05-08T23:57:36.325Z,17.02
